sensor_id;sensor_type;location;lat;lon;timestamp;temperature;humidity
8226;DHT22;4154;48.810;9.012;2023-12-07T00:01:34;3.40;99.90
8226;DHT22;4154;48.810;9.012;2023-12-07T00:04:00;3.40;99.90
8226;DHT22;4154;48.810;9.012;2023-12-07T00:11:18;3.30;99.90
8226;DHT22;4154;48.810;9.012;2023-12-07T00:13:44;3.20;99.90
8226;DHT22;4154;48.810;9.012;2023-12-07T00:16:10;3.20;99.90
8226;DHT22;4154;48.810;9.012;2023-12-07T00:18:35;3.20;99.90
8226;DHT22;4154;48.810;9.012;2023-12-07T00:21:01;3.20;99.90
8226;DHT22;4154;48.810;9.012;2023-12-07T00:23:27;3.30;99.90
8226;DHT22;4154;48.810;9.012;2023-12-07T00:25:52;3.30;99.90
8226;DHT22;4154;48.810;9.012;2023-12-07T00:28:18;3.30;99.90
8226;DHT22;4154;48.810;9.012;2023-12-07T00:30:44;3.30;99.90
8226;DHT22;4154;48.810;9.012;2023-12-07T00:33:09;3.20;99.90
8226;DHT22;4154;48.810;9.012;2023-12-07T00:35:35;3.20;99.90
8226;DHT22;4154;48.810;9.012;2023-12-07T00:38:01;3.30;99.90
8226;DHT22;4154;48.810;9.012;2023-12-07T00:40:27;3.20;99.90
8226;DHT22;4154;48.810;9.012;2023-12-07T00:42:53;3.20;99.90
8226;DHT22;4154;48.810;9.012;2023-12-07T00:45:18;3.30;99.90
8226;DHT22;4154;48.810;9.012;2023-12-07T00:50:12;3.10;99.90
8226;DHT22;4154;48.810;9.012;2023-12-07T00:52:39;3.30;99.90
8226;DHT22;4154;48.810;9.012;2023-12-07T00:55:05;3.20;99.90
8226;DHT22;4154;48.810;9.012;2023-12-07T00:57:31;3.20;99.90
8226;DHT22;4154;48.810;9.012;2023-12-07T00:59:57;3.30;99.90
8226;DHT22;4154;48.810;9.012;2023-12-07T01:02:23;3.30;99.90
8226;DHT22;4154;48.810;9.012;2023-12-07T01:04:48;3.40;99.90
8226;DHT22;4154;48.810;9.012;2023-12-07T01:07:14;3.30;99.90
8226;DHT22;4154;48.810;9.012;2023-12-07T01:12:06;3.30;99.90
8226;DHT22;4154;48.810;9.012;2023-12-07T01:14:31;3.20;99.90
8226;DHT22;4154;48.810;9.012;2023-12-07T01:16:57;3.40;99.90
8226;DHT22;4154;48.810;9.012;2023-12-07T01:19:23;3.40;99.90
8226;DHT22;4154;48.810;9.012;2023-12-07T01:21:50;3.30;99.90
8226;DHT22;4154;48.810;9.012;2023-12-07T01:26:42;3.30;99.90
8226;DHT22;4154;48.810;9.012;2023-12-07T01:29:08;3.30;99.90
8226;DHT22;4154;48.810;9.012;2023-12-07T01:31:34;3.20;99.90
8226;DHT22;4154;48.810;9.012;2023-12-07T01:33:59;2.90;99.90
8226;DHT22;4154;48.810;9.012;2023-12-07T01:36:25;3.20;99.90
8226;DHT22;4154;48.810;9.012;2023-12-07T01:43:46;3.20;99.90
8226;DHT22;4154;48.810;9.012;2023-12-07T01:46:13;3.10;99.90
8226;DHT22;4154;48.810;9.012;2023-12-07T01:48:40;3.20;99.90
8226;DHT22;4154;48.810;9.012;2023-12-07T01:51:08;3.10;99.90
8226;DHT22;4154;48.810;9.012;2023-12-07T01:53:38;3.10;99.90
8226;DHT22;4154;48.810;9.012;2023-12-07T01:56:04;3.00;99.90
8226;DHT22;4154;48.810;9.012;2023-12-07T02:01:00;2.90;99.90
8226;DHT22;4154;48.810;9.012;2023-12-07T02:03:27;3.10;99.90
8226;DHT22;4154;48.810;9.012;2023-12-07T02:08:20;3.00;99.90
8226;DHT22;4154;48.810;9.012;2023-12-07T02:10:45;2.90;99.90
8226;DHT22;4154;48.810;9.012;2023-12-07T02:13:11;3.00;99.90
8226;DHT22;4154;48.810;9.012;2023-12-07T02:15:37;2.90;99.90
8226;DHT22;4154;48.810;9.012;2023-12-07T02:18:28;2.90;99.90
8226;DHT22;4154;48.810;9.012;2023-12-07T02:21:34;2.90;99.90
8226;DHT22;4154;48.810;9.012;2023-12-07T02:24:05;3.00;99.90
8226;DHT22;4154;48.810;9.012;2023-12-07T02:26:35;2.90;99.90
8226;DHT22;4154;48.810;9.012;2023-12-07T02:29:02;2.70;99.90
8226;DHT22;4154;48.810;9.012;2023-12-07T02:31:28;2.90;99.90
8226;DHT22;4154;48.810;9.012;2023-12-07T02:33:55;2.90;99.90
8226;DHT22;4154;48.810;9.012;2023-12-07T02:36:22;2.90;99.90
8226;DHT22;4154;48.810;9.012;2023-12-07T02:38:51;2.90;99.90
8226;DHT22;4154;48.810;9.012;2023-12-07T02:41:20;2.90;99.90
8226;DHT22;4154;48.810;9.012;2023-12-07T02:43:46;2.80;99.90
8226;DHT22;4154;48.810;9.012;2023-12-07T02:46:13;2.70;99.90
8226;DHT22;4154;48.810;9.012;2023-12-07T02:48:38;2.80;99.90
8226;DHT22;4154;48.810;9.012;2023-12-07T02:51:04;2.80;99.90
8226;DHT22;4154;48.810;9.012;2023-12-07T02:53:30;2.80;99.90
8226;DHT22;4154;48.810;9.012;2023-12-07T02:55:55;2.70;99.90
8226;DHT22;4154;48.810;9.012;2023-12-07T02:58:21;2.80;99.90
8226;DHT22;4154;48.810;9.012;2023-12-07T03:00:46;2.70;99.90
8226;DHT22;4154;48.810;9.012;2023-12-07T03:03:12;2.60;99.90
8226;DHT22;4154;48.810;9.012;2023-12-07T03:05:38;2.60;99.90
8226;DHT22;4154;48.810;9.012;2023-12-07T03:08:03;3.00;99.90
8226;DHT22;4154;48.810;9.012;2023-12-07T03:10:29;2.60;99.90
8226;DHT22;4154;48.810;9.012;2023-12-07T03:12:54;2.70;99.90
8226;DHT22;4154;48.810;9.012;2023-12-07T03:15:20;2.70;99.90
8226;DHT22;4154;48.810;9.012;2023-12-07T03:17:46;2.70;99.90
8226;DHT22;4154;48.810;9.012;2023-12-07T03:22:38;2.60;99.90
8226;DHT22;4154;48.810;9.012;2023-12-07T03:25:03;2.70;99.90
8226;DHT22;4154;48.810;9.012;2023-12-07T03:27:29;2.70;99.90
8226;DHT22;4154;48.810;9.012;2023-12-07T03:32:21;2.80;99.90
8226;DHT22;4154;48.810;9.012;2023-12-07T03:34:47;2.40;99.90
8226;DHT22;4154;48.810;9.012;2023-12-07T03:37:12;2.50;99.90
8226;DHT22;4154;48.810;9.012;2023-12-07T03:39:38;2.50;99.90
8226;DHT22;4154;48.810;9.012;2023-12-07T03:42:04;2.40;99.90
8226;DHT22;4154;48.810;9.012;2023-12-07T03:46:56;2.40;99.90
8226;DHT22;4154;48.810;9.012;2023-12-07T03:49:21;2.30;99.90
8226;DHT22;4154;48.810;9.012;2023-12-07T03:51:47;2.40;99.90
8226;DHT22;4154;48.810;9.012;2023-12-07T03:54:13;2.30;99.90
8226;DHT22;4154;48.810;9.012;2023-12-07T03:56:38;2.30;99.90
8226;DHT22;4154;48.810;9.012;2023-12-07T03:59:06;2.30;99.90
8226;DHT22;4154;48.810;9.012;2023-12-07T04:01:31;2.20;99.90
8226;DHT22;4154;48.810;9.012;2023-12-07T04:06:24;2.20;99.90
8226;DHT22;4154;48.810;9.012;2023-12-07T04:08:50;2.10;99.90
8226;DHT22;4154;48.810;9.012;2023-12-07T04:11:16;2.20;99.90
8226;DHT22;4154;48.810;9.012;2023-12-07T04:13:43;2.10;99.90
8226;DHT22;4154;48.810;9.012;2023-12-07T04:16:10;2.00;99.90
8226;DHT22;4154;48.810;9.012;2023-12-07T04:18:36;2.10;99.90
8226;DHT22;4154;48.810;9.012;2023-12-07T04:21:02;2.10;99.90
8226;DHT22;4154;48.810;9.012;2023-12-07T04:23:28;2.00;99.90
8226;DHT22;4154;48.810;9.012;2023-12-07T04:25:54;2.00;99.90
8226;DHT22;4154;48.810;9.012;2023-12-07T04:28:20;2.00;99.90
8226;DHT22;4154;48.810;9.012;2023-12-07T04:30:45;2.00;99.90
8226;DHT22;4154;48.810;9.012;2023-12-07T04:33:11;1.80;99.90
8226;DHT22;4154;48.810;9.012;2023-12-07T04:35:37;1.90;99.90
8226;DHT22;4154;48.810;9.012;2023-12-07T04:38:02;1.90;99.90
8226;DHT22;4154;48.810;9.012;2023-12-07T04:40:28;1.80;99.90
8226;DHT22;4154;48.810;9.012;2023-12-07T04:42:54;1.70;99.90
8226;DHT22;4154;48.810;9.012;2023-12-07T04:45:19;1.80;99.90
8226;DHT22;4154;48.810;9.012;2023-12-07T04:47:45;1.80;99.90
8226;DHT22;4154;48.810;9.012;2023-12-07T04:50:11;1.70;99.90
8226;DHT22;4154;48.810;9.012;2023-12-07T04:55:05;1.70;99.90
8226;DHT22;4154;48.810;9.012;2023-12-07T04:57:34;1.60;99.90
8226;DHT22;4154;48.810;9.012;2023-12-07T05:00:01;1.70;99.90
8226;DHT22;4154;48.810;9.012;2023-12-07T05:02:31;1.60;99.90
8226;DHT22;4154;48.810;9.012;2023-12-07T05:04:57;1.70;99.90
8226;DHT22;4154;48.810;9.012;2023-12-07T05:07:23;1.60;99.90
8226;DHT22;4154;48.810;9.012;2023-12-07T05:12:18;1.50;99.90
8226;DHT22;4154;48.810;9.012;2023-12-07T05:14:44;1.60;99.90
8226;DHT22;4154;48.810;9.012;2023-12-07T05:17:09;1.60;99.90
8226;DHT22;4154;48.810;9.012;2023-12-07T05:24:28;1.60;99.90
8226;DHT22;4154;48.810;9.012;2023-12-07T05:26:53;1.60;99.90
8226;DHT22;4154;48.810;9.012;2023-12-07T05:29:19;1.30;99.90
8226;DHT22;4154;48.810;9.012;2023-12-07T05:31:48;1.40;99.90
8226;DHT22;4154;48.810;9.012;2023-12-07T05:34:17;1.60;99.90
8226;DHT22;4154;48.810;9.012;2023-12-07T05:36:44;1.40;99.90
8226;DHT22;4154;48.810;9.012;2023-12-07T05:39:10;1.30;99.90
8226;DHT22;4154;48.810;9.012;2023-12-07T05:41:36;1.30;99.90
8226;DHT22;4154;48.810;9.012;2023-12-07T05:44:03;1.40;99.90
8226;DHT22;4154;48.810;9.012;2023-12-07T05:46:29;1.40;99.90
8226;DHT22;4154;48.810;9.012;2023-12-07T05:48:55;1.40;99.90
8226;DHT22;4154;48.810;9.012;2023-12-07T05:51:20;1.80;99.90
8226;DHT22;4154;48.810;9.012;2023-12-07T05:53:46;1.30;99.90
8226;DHT22;4154;48.810;9.012;2023-12-07T05:58:43;1.30;99.90
8226;DHT22;4154;48.810;9.012;2023-12-07T06:01:08;1.30;99.90
8226;DHT22;4154;48.810;9.012;2023-12-07T06:03:34;1.20;99.90
8226;DHT22;4154;48.810;9.012;2023-12-07T06:06:00;1.30;99.90
8226;DHT22;4154;48.810;9.012;2023-12-07T06:10:52;1.20;99.90
8226;DHT22;4154;48.810;9.012;2023-12-07T06:13:18;1.20;99.90
8226;DHT22;4154;48.810;9.012;2023-12-07T06:15:43;1.30;99.90
8226;DHT22;4154;48.810;9.012;2023-12-07T06:18:09;1.40;99.90
8226;DHT22;4154;48.810;9.012;2023-12-07T06:20:34;1.30;99.90
8226;DHT22;4154;48.810;9.012;2023-12-07T06:23:00;1.30;99.90
8226;DHT22;4154;48.810;9.012;2023-12-07T06:25:27;1.30;99.90
8226;DHT22;4154;48.810;9.012;2023-12-07T06:27:53;1.20;99.90
8226;DHT22;4154;48.810;9.012;2023-12-07T06:30:18;1.20;99.90
8226;DHT22;4154;48.810;9.012;2023-12-07T06:32:44;1.30;99.90
8226;DHT22;4154;48.810;9.012;2023-12-07T06:35:13;1.30;99.90
8226;DHT22;4154;48.810;9.012;2023-12-07T06:37:39;1.20;99.90
8226;DHT22;4154;48.810;9.012;2023-12-07T06:40:08;1.30;99.90
8226;DHT22;4154;48.810;9.012;2023-12-07T06:42:34;1.20;99.90
8226;DHT22;4154;48.810;9.012;2023-12-07T06:45:01;1.20;99.90
8226;DHT22;4154;48.810;9.012;2023-12-07T06:47:28;1.20;99.90
8226;DHT22;4154;48.810;9.012;2023-12-07T06:49:54;1.00;99.90
8226;DHT22;4154;48.810;9.012;2023-12-07T06:52:23;0.90;99.90
8226;DHT22;4154;48.810;9.012;2023-12-07T06:54:49;1.20;99.90
8226;DHT22;4154;48.810;9.012;2023-12-07T06:57:15;1.40;99.90
8226;DHT22;4154;48.810;9.012;2023-12-07T06:59:40;1.20;99.90
8226;DHT22;4154;48.810;9.012;2023-12-07T07:02:06;1.00;99.90
8226;DHT22;4154;48.810;9.012;2023-12-07T07:04:32;1.10;99.90
8226;DHT22;4154;48.810;9.012;2023-12-07T07:06:57;1.10;99.90
8226;DHT22;4154;48.810;9.012;2023-12-07T07:09:23;1.00;99.90
8226;DHT22;4154;48.810;9.012;2023-12-07T07:11:49;1.10;99.90
8226;DHT22;4154;48.810;9.012;2023-12-07T07:14:15;1.00;99.90
8226;DHT22;4154;48.810;9.012;2023-12-07T07:16:41;1.00;99.90
8226;DHT22;4154;48.810;9.012;2023-12-07T07:19:07;1.10;99.90
8226;DHT22;4154;48.810;9.012;2023-12-07T07:21:33;1.00;99.90
8226;DHT22;4154;48.810;9.012;2023-12-07T07:26:25;1.00;99.90
8226;DHT22;4154;48.810;9.012;2023-12-07T07:28:52;1.00;99.90
8226;DHT22;4154;48.810;9.012;2023-12-07T07:31:18;1.00;99.90
8226;DHT22;4154;48.810;9.012;2023-12-07T07:33:44;1.00;99.90
8226;DHT22;4154;48.810;9.012;2023-12-07T07:36:12;1.00;99.90
8226;DHT22;4154;48.810;9.012;2023-12-07T07:38:40;1.00;99.90
8226;DHT22;4154;48.810;9.012;2023-12-07T07:41:06;1.10;99.90
8226;DHT22;4154;48.810;9.012;2023-12-07T07:43:31;1.00;99.90
8226;DHT22;4154;48.810;9.012;2023-12-07T07:45:59;1.00;99.90
8226;DHT22;4154;48.810;9.012;2023-12-07T07:48:25;1.00;99.90
8226;DHT22;4154;48.810;9.012;2023-12-07T07:50:51;1.00;99.90
8226;DHT22;4154;48.810;9.012;2023-12-07T07:53:17;0.90;99.90
8226;DHT22;4154;48.810;9.012;2023-12-07T07:58:09;0.80;99.90
8226;DHT22;4154;48.810;9.012;2023-12-07T08:03:01;1.00;99.90
8226;DHT22;4154;48.810;9.012;2023-12-07T08:05:27;1.10;99.90
8226;DHT22;4154;48.810;9.012;2023-12-07T08:07:52;1.30;99.90
8226;DHT22;4154;48.810;9.012;2023-12-07T08:15:10;1.10;99.90
8226;DHT22;4154;48.810;9.012;2023-12-07T08:17:40;1.00;99.90
8226;DHT22;4154;48.810;9.012;2023-12-07T08:20:08;1.10;99.90
8226;DHT22;4154;48.810;9.012;2023-12-07T08:22:36;1.10;99.90
8226;DHT22;4154;48.810;9.012;2023-12-07T08:25:06;1.10;99.90
8226;DHT22;4154;48.810;9.012;2023-12-07T08:27:33;1.20;99.90
8226;DHT22;4154;48.810;9.012;2023-12-07T08:29:59;1.30;99.90
8226;DHT22;4154;48.810;9.012;2023-12-07T08:32:25;1.30;99.90
8226;DHT22;4154;48.810;9.012;2023-12-07T08:34:54;0.90;99.90
8226;DHT22;4154;48.810;9.012;2023-12-07T08:37:19;1.30;99.90
8226;DHT22;4154;48.810;9.012;2023-12-07T08:39:45;1.40;99.90
8226;DHT22;4154;48.810;9.012;2023-12-07T08:42:11;1.50;99.90
8226;DHT22;4154;48.810;9.012;2023-12-07T08:44:37;1.40;99.90
8226;DHT22;4154;48.810;9.012;2023-12-07T08:47:05;1.50;99.90
8226;DHT22;4154;48.810;9.012;2023-12-07T08:49:30;1.90;99.90
8226;DHT22;4154;48.810;9.012;2023-12-07T08:51:57;1.50;99.90
8226;DHT22;4154;48.810;9.012;2023-12-07T08:54:23;1.60;99.90
8226;DHT22;4154;48.810;9.012;2023-12-07T08:56:49;1.40;99.90
8226;DHT22;4154;48.810;9.012;2023-12-07T08:59:15;1.70;99.90
8226;DHT22;4154;48.810;9.012;2023-12-07T09:01:40;1.60;99.90
8226;DHT22;4154;48.810;9.012;2023-12-07T09:04:06;1.70;99.90
8226;DHT22;4154;48.810;9.012;2023-12-07T09:06:32;1.70;99.90
8226;DHT22;4154;48.810;9.012;2023-12-07T09:08:57;1.70;99.90
8226;DHT22;4154;48.810;9.012;2023-12-07T09:11:23;1.60;99.90
8226;DHT22;4154;48.810;9.012;2023-12-07T09:13:50;1.70;99.90
8226;DHT22;4154;48.810;9.012;2023-12-07T09:16:15;1.90;99.90
8226;DHT22;4154;48.810;9.012;2023-12-07T09:18:42;1.90;99.90
8226;DHT22;4154;48.810;9.012;2023-12-07T09:21:10;1.90;99.90
8226;DHT22;4154;48.810;9.012;2023-12-07T09:23:36;2.00;99.90
8226;DHT22;4154;48.810;9.012;2023-12-07T09:26:02;2.00;99.90
8226;DHT22;4154;48.810;9.012;2023-12-07T09:28:29;2.00;99.90
8226;DHT22;4154;48.810;9.012;2023-12-07T09:30:55;1.70;99.90
8226;DHT22;4154;48.810;9.012;2023-12-07T09:33:20;1.90;99.90
8226;DHT22;4154;48.810;9.012;2023-12-07T09:35:46;2.30;99.90
8226;DHT22;4154;48.810;9.012;2023-12-07T09:38:12;2.10;99.90
8226;DHT22;4154;48.810;9.012;2023-12-07T09:40:38;2.20;99.90
8226;DHT22;4154;48.810;9.012;2023-12-07T09:43:03;2.40;99.90
8226;DHT22;4154;48.810;9.012;2023-12-07T09:45:29;2.40;99.90
8226;DHT22;4154;48.810;9.012;2023-12-07T09:47:55;2.50;99.90
8226;DHT22;4154;48.810;9.012;2023-12-07T09:50:23;2.40;99.90
8226;DHT22;4154;48.810;9.012;2023-12-07T09:52:51;2.50;99.90
8226;DHT22;4154;48.810;9.012;2023-12-07T09:55:18;2.50;99.90
8226;DHT22;4154;48.810;9.012;2023-12-07T09:57:46;2.50;99.90
8226;DHT22;4154;48.810;9.012;2023-12-07T10:00:12;2.50;99.90
8226;DHT22;4154;48.810;9.012;2023-12-07T10:02:42;2.60;99.90
8226;DHT22;4154;48.810;9.012;2023-12-07T10:05:13;2.60;99.90
8226;DHT22;4154;48.810;9.012;2023-12-07T10:07:42;2.70;99.90
8226;DHT22;4154;48.810;9.012;2023-12-07T10:10:10;2.70;99.90
8226;DHT22;4154;48.810;9.012;2023-12-07T10:12:52;2.70;99.90
8226;DHT22;4154;48.810;9.012;2023-12-07T10:15:20;2.70;99.90
8226;DHT22;4154;48.810;9.012;2023-12-07T10:20:22;2.70;99.90
8226;DHT22;4154;48.810;9.012;2023-12-07T10:23:00;2.80;99.90
8226;DHT22;4154;48.810;9.012;2023-12-07T10:25:40;2.80;99.90
8226;DHT22;4154;48.810;9.012;2023-12-07T10:28:08;2.80;99.90
8226;DHT22;4154;48.810;9.012;2023-12-07T10:30:37;2.80;99.90
8226;DHT22;4154;48.810;9.012;2023-12-07T10:33:04;2.80;99.90
8226;DHT22;4154;48.810;9.012;2023-12-07T10:35:32;2.80;99.90
8226;DHT22;4154;48.810;9.012;2023-12-07T10:37:58;2.80;99.90
8226;DHT22;4154;48.810;9.012;2023-12-07T10:42:55;2.90;99.90
8226;DHT22;4154;48.810;9.012;2023-12-07T10:45:24;2.90;99.90
8226;DHT22;4154;48.810;9.012;2023-12-07T10:48:02;3.00;99.90
8226;DHT22;4154;48.810;9.012;2023-12-07T10:50:35;3.10;99.90
8226;DHT22;4154;48.810;9.012;2023-12-07T10:53:27;3.10;99.90
8226;DHT22;4154;48.810;9.012;2023-12-07T10:55:56;3.10;99.90
8226;DHT22;4154;48.810;9.012;2023-12-07T10:58:26;3.10;99.90
8226;DHT22;4154;48.810;9.012;2023-12-07T11:00:53;3.10;99.90
8226;DHT22;4154;48.810;9.012;2023-12-07T11:03:19;3.20;99.90
8226;DHT22;4154;48.810;9.012;2023-12-07T11:05:47;3.20;99.90
8226;DHT22;4154;48.810;9.012;2023-12-07T11:11:23;3.20;99.90
8226;DHT22;4154;48.810;9.012;2023-12-07T11:14:03;3.20;99.90
8226;DHT22;4154;48.810;9.012;2023-12-07T11:16:32;3.40;99.90
8226;DHT22;4154;48.810;9.012;2023-12-07T11:19:00;3.40;99.90
8226;DHT22;4154;48.810;9.012;2023-12-07T11:21:27;3.40;99.90
8226;DHT22;4154;48.810;9.012;2023-12-07T11:23:53;3.50;99.90
8226;DHT22;4154;48.810;9.012;2023-12-07T11:26:26;3.50;99.90
8226;DHT22;4154;48.810;9.012;2023-12-07T11:31:20;3.50;99.50
8226;DHT22;4154;48.810;9.012;2023-12-07T11:33:46;3.60;99.60
8226;DHT22;4154;48.810;9.012;2023-12-07T11:36:13;3.70;99.90
8226;DHT22;4154;48.810;9.012;2023-12-07T11:41:42;3.80;99.90
8226;DHT22;4154;48.810;9.012;2023-12-07T11:44:10;3.80;97.10
8226;DHT22;4154;48.810;9.012;2023-12-07T11:46:39;3.90;96.90
8226;DHT22;4154;48.810;9.012;2023-12-07T11:49:05;3.90;97.20
8226;DHT22;4154;48.810;9.012;2023-12-07T11:51:36;4.00;97.00
8226;DHT22;4154;48.810;9.012;2023-12-07T11:54:02;4.10;96.60
8226;DHT22;4154;48.810;9.012;2023-12-07T11:56:28;4.00;99.90
8226;DHT22;4154;48.810;9.012;2023-12-07T12:03:49;4.20;95.50
8226;DHT22;4154;48.810;9.012;2023-12-07T12:06:15;4.20;99.90
8226;DHT22;4154;48.810;9.012;2023-12-07T12:08:41;4.20;94.80
8226;DHT22;4154;48.810;9.012;2023-12-07T12:11:07;4.20;95.10
8226;DHT22;4154;48.810;9.012;2023-12-07T12:13:35;4.20;95.10
8226;DHT22;4154;48.810;9.012;2023-12-07T12:16:02;4.20;95.30
8226;DHT22;4154;48.810;9.012;2023-12-07T12:18:28;4.20;99.90
8226;DHT22;4154;48.810;9.012;2023-12-07T12:20:54;4.20;99.90
8226;DHT22;4154;48.810;9.012;2023-12-07T12:25:47;4.30;93.90
8226;DHT22;4154;48.810;9.012;2023-12-07T12:28:16;4.30;94.00
8226;DHT22;4154;48.810;9.012;2023-12-07T12:30:44;4.30;94.00
8226;DHT22;4154;48.810;9.012;2023-12-07T12:33:10;4.40;94.20
8226;DHT22;4154;48.810;9.012;2023-12-07T12:35:35;4.40;94.50
8226;DHT22;4154;48.810;9.012;2023-12-07T12:38:01;4.30;99.90
8226;DHT22;4154;48.810;9.012;2023-12-07T12:40:27;4.40;93.90
8226;DHT22;4154;48.810;9.012;2023-12-07T12:42:57;4.40;99.90
8226;DHT22;4154;48.810;9.012;2023-12-07T12:45:23;4.50;94.00
8226;DHT22;4154;48.810;9.012;2023-12-07T12:47:49;4.50;93.70
8226;DHT22;4154;48.810;9.012;2023-12-07T12:50:37;4.50;93.70
8226;DHT22;4154;48.810;9.012;2023-12-07T12:53:09;4.50;94.00
8226;DHT22;4154;48.810;9.012;2023-12-07T12:55:37;4.50;93.50
8226;DHT22;4154;48.810;9.012;2023-12-07T12:58:07;4.50;93.80
8226;DHT22;4154;48.810;9.012;2023-12-07T13:00:34;4.50;94.00
8226;DHT22;4154;48.810;9.012;2023-12-07T13:03:04;4.50;94.00
8226;DHT22;4154;48.810;9.012;2023-12-07T13:05:30;4.60;94.00
8226;DHT22;4154;48.810;9.012;2023-12-07T13:07:58;4.60;94.40
8226;DHT22;4154;48.810;9.012;2023-12-07T13:10:25;4.60;94.60
8226;DHT22;4154;48.810;9.012;2023-12-07T13:12:51;4.60;94.40
8226;DHT22;4154;48.810;9.012;2023-12-07T13:15:17;4.50;94.50
8226;DHT22;4154;48.810;9.012;2023-12-07T13:20:10;4.50;99.90
8226;DHT22;4154;48.810;9.012;2023-12-07T13:22:40;4.50;95.10
8226;DHT22;4154;48.810;9.012;2023-12-07T13:25:09;4.50;95.00
8226;DHT22;4154;48.810;9.012;2023-12-07T13:27:35;4.50;94.50
8226;DHT22;4154;48.810;9.012;2023-12-07T13:30:03;4.60;93.90
8226;DHT22;4154;48.810;9.012;2023-12-07T13:32:35;4.50;94.10
8226;DHT22;4154;48.810;9.012;2023-12-07T13:35:05;4.50;94.20
8226;DHT22;4154;48.810;9.012;2023-12-07T13:37:31;4.50;94.50
8226;DHT22;4154;48.810;9.012;2023-12-07T13:39:58;4.50;94.60
8226;DHT22;4154;48.810;9.012;2023-12-07T13:42:25;4.60;94.40
8226;DHT22;4154;48.810;9.012;2023-12-07T13:44:56;4.60;94.20
8226;DHT22;4154;48.810;9.012;2023-12-07T13:47:27;4.60;94.30
8226;DHT22;4154;48.810;9.012;2023-12-07T13:50:00;4.60;94.50
8226;DHT22;4154;48.810;9.012;2023-12-07T13:52:26;4.70;94.70
8226;DHT22;4154;48.810;9.012;2023-12-07T13:57:21;4.60;94.40
8226;DHT22;4154;48.810;9.012;2023-12-07T13:59:49;4.60;94.90
8226;DHT22;4154;48.810;9.012;2023-12-07T14:02:16;4.70;95.10
8226;DHT22;4154;48.810;9.012;2023-12-07T14:04:42;4.60;95.00
8226;DHT22;4154;48.810;9.012;2023-12-07T14:07:11;4.60;95.00
8226;DHT22;4154;48.810;9.012;2023-12-07T14:09:40;4.70;95.20
8226;DHT22;4154;48.810;9.012;2023-12-07T14:12:08;4.70;95.20
8226;DHT22;4154;48.810;9.012;2023-12-07T14:14:36;4.60;95.40
8226;DHT22;4154;48.810;9.012;2023-12-07T14:17:02;4.60;95.40
8226;DHT22;4154;48.810;9.012;2023-12-07T14:19:28;4.60;95.00
8226;DHT22;4154;48.810;9.012;2023-12-07T14:21:54;4.60;94.90
8226;DHT22;4154;48.810;9.012;2023-12-07T14:24:21;4.60;95.20
8226;DHT22;4154;48.810;9.012;2023-12-07T14:26:48;4.50;95.20
8226;DHT22;4154;48.810;9.012;2023-12-07T14:29:14;4.50;95.10
8226;DHT22;4154;48.810;9.012;2023-12-07T14:31:46;4.50;95.20
8226;DHT22;4154;48.810;9.012;2023-12-07T14:36:40;4.30;99.90
8226;DHT22;4154;48.810;9.012;2023-12-07T14:39:13;4.40;95.30
8226;DHT22;4154;48.810;9.012;2023-12-07T14:41:51;4.40;95.40
8226;DHT22;4154;48.810;9.012;2023-12-07T14:44:17;4.40;95.40
8226;DHT22;4154;48.810;9.012;2023-12-07T14:46:44;4.40;94.90
8226;DHT22;4154;48.810;9.012;2023-12-07T14:49:16;4.30;95.20
8226;DHT22;4154;48.810;9.012;2023-12-07T14:51:43;4.30;95.40
8226;DHT22;4154;48.810;9.012;2023-12-07T14:54:09;4.30;95.50
8226;DHT22;4154;48.810;9.012;2023-12-07T14:56:36;4.30;95.40
8226;DHT22;4154;48.810;9.012;2023-12-07T14:59:02;4.20;95.40
8226;DHT22;4154;48.810;9.012;2023-12-07T15:01:28;4.20;95.60
8226;DHT22;4154;48.810;9.012;2023-12-07T15:03:53;4.20;95.50
8226;DHT22;4154;48.810;9.012;2023-12-07T15:06:19;4.30;99.90
8226;DHT22;4154;48.810;9.012;2023-12-07T15:08:45;4.10;95.50
8226;DHT22;4154;48.810;9.012;2023-12-07T15:11:12;4.20;95.50
8226;DHT22;4154;48.810;9.012;2023-12-07T15:13:39;4.10;95.30
8226;DHT22;4154;48.810;9.012;2023-12-07T15:16:06;4.10;95.20
8226;DHT22;4154;48.810;9.012;2023-12-07T15:18:32;4.10;95.20
8226;DHT22;4154;48.810;9.012;2023-12-07T15:21:01;4.00;94.90
8226;DHT22;4154;48.810;9.012;2023-12-07T15:23:27;4.00;94.60
8226;DHT22;4154;48.810;9.012;2023-12-07T15:25:53;3.90;94.30
8226;DHT22;4154;48.810;9.012;2023-12-07T15:28:22;3.90;94.00
8226;DHT22;4154;48.810;9.012;2023-12-07T15:30:48;3.80;93.50
8226;DHT22;4154;48.810;9.012;2023-12-07T15:33:14;3.80;93.70
8226;DHT22;4154;48.810;9.012;2023-12-07T15:35:41;3.70;94.00
8226;DHT22;4154;48.810;9.012;2023-12-07T15:38:07;3.80;93.90
8226;DHT22;4154;48.810;9.012;2023-12-07T15:40:32;3.70;94.00
8226;DHT22;4154;48.810;9.012;2023-12-07T15:42:58;3.70;93.90
8226;DHT22;4154;48.810;9.012;2023-12-07T15:45:23;3.60;93.40
8226;DHT22;4154;48.810;9.012;2023-12-07T15:47:49;3.50;99.90
8226;DHT22;4154;48.810;9.012;2023-12-07T15:50:15;3.60;93.60
8226;DHT22;4154;48.810;9.012;2023-12-07T15:52:41;3.60;93.40
8226;DHT22;4154;48.810;9.012;2023-12-07T15:55:08;3.50;93.20
8226;DHT22;4154;48.810;9.012;2023-12-07T15:57:34;3.50;92.70
8226;DHT22;4154;48.810;9.012;2023-12-07T16:00:00;3.50;99.70
8226;DHT22;4154;48.810;9.012;2023-12-07T16:02:26;3.60;92.80
8226;DHT22;4154;48.810;9.012;2023-12-07T16:04:51;3.50;92.80
8226;DHT22;4154;48.810;9.012;2023-12-07T16:07:18;3.50;92.60
8226;DHT22;4154;48.810;9.012;2023-12-07T16:09:44;3.50;92.80
8226;DHT22;4154;48.810;9.012;2023-12-07T16:12:10;3.40;92.50
8226;DHT22;4154;48.810;9.012;2023-12-07T16:14:37;3.40;92.80
8226;DHT22;4154;48.810;9.012;2023-12-07T16:17:04;3.40;92.60
8226;DHT22;4154;48.810;9.012;2023-12-07T16:21:56;3.30;99.20
8226;DHT22;4154;48.810;9.012;2023-12-07T16:24:22;3.30;92.10
8226;DHT22;4154;48.810;9.012;2023-12-07T16:26:48;3.40;99.40
8226;DHT22;4154;48.810;9.012;2023-12-07T16:29:14;3.30;92.40
8226;DHT22;4154;48.810;9.012;2023-12-07T16:31:46;3.20;99.50
8226;DHT22;4154;48.810;9.012;2023-12-07T16:34:12;3.20;92.50
8226;DHT22;4154;48.810;9.012;2023-12-07T16:36:38;3.20;92.30
8226;DHT22;4154;48.810;9.012;2023-12-07T16:39:05;3.20;92.20
8226;DHT22;4154;48.810;9.012;2023-12-07T16:41:32;3.20;92.40
8226;DHT22;4154;48.810;9.012;2023-12-07T16:44:02;3.10;92.50
8226;DHT22;4154;48.810;9.012;2023-12-07T16:46:28;3.10;99.80
8226;DHT22;4154;48.810;9.012;2023-12-07T16:48:53;3.10;92.90
8226;DHT22;4154;48.810;9.012;2023-12-07T16:51:19;3.10;92.90
8226;DHT22;4154;48.810;9.012;2023-12-07T16:53:45;3.10;92.60
8226;DHT22;4154;48.810;9.012;2023-12-07T16:56:11;3.10;92.80
8226;DHT22;4154;48.810;9.012;2023-12-07T16:58:37;3.10;92.90
8226;DHT22;4154;48.810;9.012;2023-12-07T17:01:03;3.00;93.00
8226;DHT22;4154;48.810;9.012;2023-12-07T17:03:29;3.00;93.10
8226;DHT22;4154;48.810;9.012;2023-12-07T17:05:57;2.90;93.30
8226;DHT22;4154;48.810;9.012;2023-12-07T17:08:23;2.90;93.10
8226;DHT22;4154;48.810;9.012;2023-12-07T17:10:50;2.80;99.90
8226;DHT22;4154;48.810;9.012;2023-12-07T17:13:16;2.90;93.40
8226;DHT22;4154;48.810;9.012;2023-12-07T17:15:42;2.90;93.30
8226;DHT22;4154;48.810;9.012;2023-12-07T17:18:08;2.80;93.30
8226;DHT22;4154;48.810;9.012;2023-12-07T17:20:35;2.80;93.40
8226;DHT22;4154;48.810;9.012;2023-12-07T17:23:01;2.70;99.90
8226;DHT22;4154;48.810;9.012;2023-12-07T17:25:26;2.70;93.50
8226;DHT22;4154;48.810;9.012;2023-12-07T17:27:52;2.70;93.70
8226;DHT22;4154;48.810;9.012;2023-12-07T17:30:19;2.80;93.70
8226;DHT22;4154;48.810;9.012;2023-12-07T17:32:47;2.70;93.50
8226;DHT22;4154;48.810;9.012;2023-12-07T17:35:13;2.70;93.30
8226;DHT22;4154;48.810;9.012;2023-12-07T17:37:39;2.70;93.60
8226;DHT22;4154;48.810;9.012;2023-12-07T17:40:06;2.70;93.70
8226;DHT22;4154;48.810;9.012;2023-12-07T17:42:32;2.60;93.60
8226;DHT22;4154;48.810;9.012;2023-12-07T17:47:23;2.60;93.40